createdAt,value
2023-04-11T00:01:24.333Z,1.00
2023-04-11T00:05:26.335Z,0.80
2023-04-11T00:09:27.731Z,1.10
2023-04-11T00:13:29.151Z,1.47
2023-04-11T00:17:31.935Z,1.17
2023-04-11T00:21:33.522Z,1.43
2023-04-11T00:25:34.944Z,1.90
2023-04-11T00:29:36.844Z,1.50
2023-04-11T00:33:41.086Z,2.03
2023-04-11T00:37:42.544Z,1.53
2023-04-11T00:41:44.234Z,1.77
2023-04-11T00:45:45.714Z,1.30
2023-04-11T00:49:48.801Z,1.97
2023-04-11T00:53:50.185Z,1.70
2023-04-11T00:57:54.154Z,2.20
2023-04-11T01:01:56.148Z,2.03
2023-04-11T01:05:59.172Z,2.10
2023-04-11T01:10:03.217Z,2.30
2023-04-11T01:14:05.251Z,2.30
2023-04-11T01:18:06.732Z,2.47
2023-04-11T01:22:11.553Z,2.07
2023-04-11T01:26:15.015Z,2.40
2023-04-11T01:30:16.567Z,2.07
2023-04-11T01:34:19.411Z,2.13
2023-04-11T01:38:21.218Z,2.50
2023-04-11T01:42:25.068Z,2.37
2023-04-11T01:46:26.752Z,2.63
2023-04-11T01:50:28.262Z,2.57
2023-04-11T01:54:29.678Z,2.83
2023-04-11T01:58:32.391Z,3.03
2023-04-11T02:02:33.958Z,2.70
2023-04-11T02:06:35.783Z,3.00
2023-04-11T02:10:37.406Z,2.40
2023-04-11T02:14:41.796Z,2.70
2023-04-11T02:18:44.988Z,2.90
2023-04-11T02:22:46.461Z,2.80
2023-04-11T02:26:47.902Z,2.90
2023-04-11T02:30:50.852Z,2.83
2023-04-11T02:34:52.287Z,3.10
2023-04-11T02:38:53.873Z,3.20
2023-04-11T02:42:55.433Z,3.23
2023-04-11T02:46:59.485Z,2.83
2023-04-11T02:51:00.899Z,3.13
2023-04-11T02:55:02.406Z,2.90
2023-04-11T02:59:03.849Z,2.80
2023-04-11T03:03:06.735Z,3.30
2023-04-11T03:07:08.268Z,2.90
2023-04-11T03:11:09.669Z,3.03
2023-04-11T03:15:11.170Z,3.00
2023-04-11T03:19:15.424Z,3.17
2023-04-11T03:23:17.083Z,3.63
2023-04-11T03:27:18.672Z,3.00
2023-04-11T03:31:20.098Z,3.33
2023-04-11T03:35:25.471Z,3.37
2023-04-11T03:39:26.882Z,2.93
2023-04-11T03:43:28.497Z,3.00
2023-04-11T03:47:30.357Z,2.63
2023-04-11T03:51:33.208Z,4.10
2023-04-11T03:55:34.620Z,2.80
2023-04-11T03:59:36.040Z,2.87
2023-04-11T04:03:37.752Z,3.13
2023-04-11T04:07:40.830Z,2.80
2023-04-11T04:11:42.212Z,3.67
2023-04-11T04:15:43.858Z,3.30
2023-04-11T04:19:45.348Z,3.87
2023-04-11T04:23:48.058Z,3.17
2023-04-11T04:27:49.447Z,3.33
2023-04-11T04:31:50.928Z,3.17
2023-04-11T04:35:52.467Z,2.80
2023-04-11T04:39:57.906Z,2.40
2023-04-11T04:43:59.295Z,3.60
2023-04-11T04:48:00.704Z,2.87
2023-04-11T04:52:02.138Z,3.03
2023-04-11T04:56:05.838Z,3.93
2023-04-11T05:00:08.594Z,3.33
2023-04-11T05:04:10.272Z,3.00
2023-04-11T05:08:11.817Z,3.27
2023-04-11T05:12:15.054Z,2.87
2023-04-11T05:16:16.602Z,3.37
2023-04-11T05:20:18.225Z,3.10
2023-04-11T05:24:19.632Z,2.80
2023-04-11T05:28:22.393Z,3.10
2023-04-11T05:32:23.824Z,3.80
2023-04-11T05:36:25.266Z,3.73
2023-04-11T05:40:26.694Z,3.93
2023-04-11T05:44:29.631Z,3.20
2023-04-11T05:48:31.132Z,3.00
2023-04-11T05:52:32.604Z,3.33
2023-04-11T05:56:34.036Z,3.00
2023-04-11T06:00:36.800Z,3.20
2023-04-11T06:04:38.362Z,3.20
2023-04-11T06:08:40.060Z,3.43
2023-04-11T06:12:41.445Z,3.30
2023-04-11T06:16:44.194Z,2.90
2023-04-11T06:20:45.791Z,3.03
2023-04-11T06:24:47.398Z,3.00
2023-04-11T06:28:48.773Z,3.00
2023-04-11T06:32:51.536Z,3.40
2023-04-11T06:36:52.961Z,3.10
2023-04-11T06:40:54.419Z,2.70
2023-04-11T06:44:55.804Z,2.83
2023-04-11T06:48:58.627Z,2.60
2023-04-11T06:53:00.007Z,2.83
2023-04-11T06:57:01.434Z,2.70
2023-04-11T07:01:03.037Z,3.13
2023-04-11T07:05:06.857Z,2.80
2023-04-11T07:09:08.722Z,2.83
2023-04-11T07:13:10.144Z,2.80
2023-04-11T07:17:11.576Z,2.50
2023-04-11T07:21:18.116Z,2.50
2023-04-11T07:25:19.651Z,2.87
2023-04-11T07:29:21.098Z,2.40
2023-04-11T07:33:22.486Z,2.57
2023-04-11T07:37:25.417Z,2.93
2023-04-11T07:41:26.807Z,2.70
2023-04-11T07:45:28.361Z,2.30
2023-04-11T07:49:29.779Z,2.33
2023-04-11T07:53:33.197Z,2.50
2023-04-11T07:57:34.680Z,2.60
2023-04-11T08:01:36.115Z,2.60
2023-04-11T08:05:37.678Z,2.30
2023-04-11T08:09:40.717Z,2.73
2023-04-11T08:13:42.545Z,2.07
2023-04-11T08:17:44.277Z,2.27
2023-04-11T08:21:48.375Z,2.40
2023-04-11T08:25:51.238Z,1.93
2023-04-11T08:29:52.632Z,2.07
2023-04-11T08:33:54.315Z,2.50
2023-04-11T08:37:56.085Z,2.10
2023-04-11T08:41:59.042Z,2.13
2023-04-11T08:46:01.672Z,2.00
2023-04-11T08:50:03.697Z,2.10
2023-04-11T08:54:06.778Z,2.00
2023-04-11T08:58:09.519Z,1.60
2023-04-11T09:02:11.006Z,1.87
2023-04-11T09:06:13.361Z,2.03
2023-04-11T09:10:18.667Z,2.07
2023-04-11T09:14:25.202Z,1.53
2023-04-11T09:18:34.008Z,2.00
2023-04-11T09:22:35.550Z,2.10
2023-04-11T09:26:37.076Z,1.90
2023-04-11T09:30:49.093Z,2.10
2023-04-11T09:34:50.739Z,2.47
2023-04-11T09:38:52.572Z,2.03
2023-04-11T09:42:57.183Z,1.77
2023-04-11T09:47:00.092Z,1.80
2023-04-11T09:51:04.658Z,2.00
2023-04-11T09:55:07.758Z,1.90
2023-04-11T09:59:09.681Z,2.00
2023-04-11T10:03:12.461Z,1.90
2023-04-11T10:07:15.113Z,2.27
2023-04-11T10:11:17.867Z,2.10
2023-04-11T10:15:19.586Z,1.73
2023-04-11T10:19:25.417Z,1.83
2023-04-11T10:23:26.867Z,1.97
2023-04-11T10:27:46.449Z,1.87
2023-04-11T10:32:08.971Z,2.20
2023-04-11T10:36:11.896Z,2.40
2023-04-11T10:40:13.441Z,1.90
2023-04-11T10:44:17.318Z,1.93
2023-04-11T10:48:18.736Z,1.70
2023-04-11T10:52:23.510Z,1.97
2023-04-11T10:56:55.774Z,2.00
2023-04-11T11:01:26.652Z,1.97
2023-04-11T11:05:39.925Z,1.90
2023-04-11T11:09:48.023Z,1.90
2023-04-11T11:13:51.246Z,1.50
2023-04-11T11:17:52.697Z,2.23
2023-04-11T11:21:54.234Z,1.70
2023-04-11T11:25:58.775Z,2.00
2023-04-11T11:30:10.507Z,1.80
2023-04-11T11:38:17.137Z,1.57
2023-04-11T11:42:20.251Z,1.60
2023-04-11T11:46:21.908Z,1.60
2023-04-11T11:50:27.537Z,1.70
2023-04-11T11:54:29.048Z,1.70
2023-04-11T11:58:42.168Z,1.90
2023-04-11T12:02:44.165Z,1.77
2023-04-11T12:06:45.783Z,2.03
2023-04-11T12:10:48.115Z,1.63
2023-04-11T12:14:54.111Z,1.70
2023-04-11T12:18:57.957Z,2.10
2023-04-11T12:22:59.347Z,1.90
2023-04-11T12:27:06.867Z,1.90
2023-04-11T12:31:11.093Z,2.00
2023-04-11T12:35:13.173Z,1.80
2023-04-11T12:39:14.608Z,1.60
2023-04-11T12:43:16.240Z,2.03
2023-04-11T12:47:18.978Z,1.60
2023-04-11T12:51:20.370Z,1.63
2023-04-11T12:55:21.922Z,1.57
2023-04-11T12:59:23.382Z,1.63
2023-04-11T13:03:26.371Z,1.97
2023-04-11T13:07:27.850Z,1.50
2023-04-11T13:11:29.334Z,1.60
2023-04-11T13:15:30.760Z,1.90
2023-04-11T13:19:33.712Z,1.73
2023-04-11T13:23:35.528Z,1.70
2023-04-11T13:27:37.205Z,1.67
2023-04-11T13:31:38.815Z,1.40
2023-04-11T13:35:41.628Z,1.30
2023-04-11T13:39:43.217Z,1.23
2023-04-11T13:43:44.613Z,1.40
2023-04-11T13:47:46.128Z,1.20
2023-04-11T13:51:48.933Z,1.30
2023-04-11T13:55:50.320Z,1.57
2023-04-11T13:59:51.749Z,1.40
2023-04-11T14:03:53.258Z,1.80
2023-04-11T14:07:56.031Z,1.27
2023-04-11T14:11:57.494Z,1.60
2023-04-11T14:16:08.077Z,1.40
2023-04-11T14:20:10.653Z,1.30
2023-04-11T14:24:13.581Z,1.70
2023-04-11T14:28:15.778Z,1.73
2023-04-11T14:32:17.423Z,1.87
2023-04-11T14:36:18.924Z,1.53
2023-04-11T14:40:21.639Z,2.10
2023-04-11T14:44:23.048Z,1.73
2023-04-11T14:48:25.916Z,2.17
2023-04-11T14:52:27.400Z,1.80
2023-04-11T14:56:30.160Z,1.77
2023-04-11T15:00:31.674Z,1.70
2023-04-11T15:04:33.191Z,2.10
2023-04-11T15:08:34.596Z,1.73
2023-04-11T15:12:37.359Z,1.77
2023-04-11T15:16:38.788Z,1.70
2023-04-11T15:20:40.377Z,1.90
2023-04-11T15:24:41.732Z,1.60
2023-04-11T15:28:45.821Z,1.60
2023-04-11T15:32:47.734Z,1.50
2023-04-11T15:36:49.117Z,1.83
2023-04-11T15:40:51.210Z,1.50
2023-04-11T15:44:54.035Z,1.50
2023-04-11T15:48:55.649Z,1.37
2023-04-11T15:52:58.679Z,1.83
2023-04-11T15:57:00.301Z,1.73
2023-04-11T16:01:03.039Z,1.80
2023-04-11T16:05:05.382Z,1.70
2023-04-11T16:09:06.804Z,1.67
2023-04-11T16:13:08.775Z,1.83
2023-04-11T16:17:12.691Z,2.10
2023-04-11T16:21:14.946Z,2.07
2023-04-11T16:25:16.340Z,1.80
2023-04-11T16:29:18.029Z,2.17
2023-04-11T16:33:20.828Z,2.00
2023-04-11T16:37:22.220Z,1.90
2023-04-11T16:41:23.577Z,1.80
2023-04-11T16:45:24.999Z,2.13
2023-04-11T16:49:27.996Z,1.80
2023-04-11T16:53:29.471Z,1.67
2023-04-11T16:57:31.064Z,2.00
2023-04-11T17:01:32.575Z,2.10
2023-04-11T17:05:35.397Z,1.80
2023-04-11T17:09:37.005Z,1.87
2023-04-11T17:13:39.256Z,1.87
2023-04-11T17:17:40.689Z,1.77
2023-04-11T17:21:43.670Z,2.30
2023-04-11T17:25:45.128Z,2.00
2023-04-11T17:29:46.600Z,2.10
2023-04-11T17:33:48.016Z,1.90
2023-04-11T17:37:51.374Z,2.70
2023-04-11T17:41:52.773Z,2.03
2023-04-11T17:45:54.811Z,3.50
2023-04-11T17:49:56.292Z,1.90
2023-04-11T17:53:59.360Z,1.77
2023-04-11T17:58:01.268Z,2.10
2023-04-11T18:02:03.042Z,1.77
2023-04-11T18:06:05.224Z,1.93
2023-04-11T18:10:08.787Z,2.10
2023-04-11T18:14:10.158Z,1.83
2023-04-11T18:18:11.573Z,1.70
2023-04-11T18:22:13.053Z,2.10
2023-04-11T18:26:15.816Z,2.20
2023-04-11T18:30:17.495Z,2.00
2023-04-11T18:34:19.005Z,1.80
2023-04-11T18:38:20.568Z,2.03
2023-04-11T18:42:23.472Z,1.70
2023-04-11T18:46:24.874Z,2.00
2023-04-11T18:50:26.346Z,2.10
2023-04-11T18:54:27.712Z,1.70
2023-04-11T18:58:32.635Z,1.90
2023-04-11T19:02:35.917Z,2.63
2023-04-11T19:06:40.055Z,2.03
2023-04-11T19:10:41.464Z,1.83
2023-04-11T19:14:44.406Z,1.63
2023-04-11T19:18:45.855Z,2.00
2023-04-11T19:22:47.450Z,1.97
2023-04-11T19:26:49.106Z,2.23
2023-04-11T19:30:53.288Z,1.93
2023-04-11T19:34:54.720Z,2.00
2023-04-11T19:38:57.748Z,2.03
2023-04-11T19:42:59.165Z,2.23
2023-04-11T19:47:02.020Z,2.00
2023-04-11T19:51:04.097Z,1.67
2023-04-11T19:55:06.624Z,1.77
2023-04-11T19:59:08.244Z,1.67
2023-04-11T20:03:11.222Z,1.87
2023-04-11T20:07:13.053Z,1.60
2023-04-11T20:11:14.889Z,1.83
2023-04-11T20:15:16.297Z,1.93
2023-04-11T20:19:19.059Z,1.90
2023-04-11T20:23:20.402Z,1.60
2023-04-11T20:27:21.837Z,1.87
2023-04-11T20:31:24.502Z,1.70
2023-04-11T20:35:27.481Z,1.97
2023-04-11T20:39:28.987Z,1.90
2023-04-11T20:43:30.417Z,1.80
2023-04-11T20:47:31.923Z,1.73
2023-04-11T20:51:34.788Z,2.77
2023-04-11T20:55:36.324Z,1.80
2023-04-11T20:59:39.214Z,1.60
2023-04-11T21:03:40.736Z,1.80
2023-04-11T21:07:44.963Z,1.70
2023-04-11T21:11:46.724Z,1.50
2023-04-11T21:15:48.356Z,1.80
2023-04-11T21:19:50.077Z,2.00
2023-04-11T21:23:53.795Z,2.20
2023-04-11T21:27:55.308Z,1.77
2023-04-11T21:31:56.761Z,2.03
2023-04-11T21:35:58.272Z,1.83
2023-04-11T21:40:01.539Z,1.70
2023-04-11T21:44:03.097Z,1.80
2023-04-11T21:48:04.685Z,2.07
2023-04-11T21:52:06.113Z,2.70
2023-04-11T21:56:09.650Z,2.73
2023-04-11T22:00:11.535Z,2.70
2023-04-11T22:04:13.398Z,2.40
2023-04-11T22:08:15.509Z,2.10
2023-04-11T22:12:18.250Z,1.80
2023-04-11T22:16:19.906Z,1.93
2023-04-11T22:20:21.389Z,1.90
2023-04-11T22:24:23.156Z,1.70
2023-04-11T22:28:25.885Z,1.97
2023-04-11T22:32:27.479Z,2.03
2023-04-11T22:36:29.351Z,1.60
2023-04-11T22:40:30.843Z,1.90
2023-04-11T22:44:33.605Z,1.70
2023-04-11T22:48:35.270Z,2.07
2023-04-11T22:52:36.682Z,1.77
2023-04-11T22:56:38.360Z,1.70
2023-04-11T23:00:41.170Z,2.20
2023-04-11T23:04:42.854Z,1.67
2023-04-11T23:08:44.290Z,2.00
2023-04-11T23:12:45.972Z,1.63
2023-04-11T23:16:49.007Z,1.80
2023-04-11T23:20:50.649Z,1.93
2023-04-11T23:24:52.153Z,1.83
2023-04-11T23:28:55.322Z,1.80
2023-04-11T23:32:58.093Z,1.63
2023-04-11T23:36:59.481Z,1.80
2023-04-11T23:41:00.857Z,1.50
2023-04-11T23:45:02.417Z,1.53
2023-04-11T23:49:05.224Z,1.77
2023-04-11T23:53:07.614Z,1.67
2023-04-11T23:57:09.043Z,1.40
